createdAt,value
2023-05-19T11:50:20.748Z,54.43
2023-05-19T11:50:31.573Z,54.43
2023-05-19T11:50:41.577Z,54.43
2023-05-19T11:50:51.582Z,54.43
2023-05-19T11:51:01.578Z,54.43
2023-05-19T11:51:11.583Z,54.53
2023-05-19T11:51:21.600Z,54.53
2023-05-19T11:51:31.572Z,54.43
2023-05-19T11:51:51.553Z,54.43
2023-05-19T11:52:01.553Z,54.43
2023-05-19T11:52:11.570Z,54.53
2023-05-19T11:52:21.565Z,54.53
2023-05-19T11:52:31.566Z,54.53
2023-05-19T11:52:41.619Z,54.53
2023-05-19T11:52:51.576Z,54.53
2023-05-19T11:53:01.656Z,54.53
2023-05-19T11:53:21.572Z,54.53
2023-05-19T11:53:33.287Z,54.53
2023-05-19T11:53:41.565Z,54.53
2023-05-19T11:53:51.572Z,54.43
2023-05-19T11:54:01.563Z,54.43
2023-05-19T11:54:11.572Z,54.43
2023-05-19T11:54:31.556Z,54.33
2023-05-19T11:54:41.562Z,54.33
2023-05-19T11:54:51.551Z,54.33
2023-05-19T11:55:01.602Z,54.33
2023-05-19T11:55:11.556Z,54.23
2023-05-19T11:55:21.543Z,54.23
2023-05-19T11:55:31.558Z,54.23
2023-05-19T11:55:51.972Z,54.13
2023-05-19T11:56:01.526Z,54.13
2023-05-19T11:56:11.612Z,54.03
2023-05-19T11:56:21.556Z,54.03
2023-05-19T11:56:31.534Z,53.92
2023-05-19T11:56:41.542Z,53.92
2023-05-19T11:56:51.595Z,53.83
2023-05-19T11:57:01.546Z,53.83
2023-05-19T11:57:21.525Z,53.83
2023-05-19T11:57:31.527Z,53.72
2023-05-19T11:57:44.750Z,53.72
2023-05-19T11:58:03.066Z,53.63
2023-05-19T11:58:09.351Z,53.63
2023-05-19T11:58:15.466Z,53.63
2023-05-19T11:58:25.460Z,53.52
2023-05-19T11:58:35.458Z,53.52
2023-05-19T11:58:45.426Z,53.42
2023-05-19T11:58:55.474Z,53.42
2023-05-19T11:59:15.440Z,53.42
2023-05-19T11:59:25.458Z,53.32
2023-05-19T11:59:36.209Z,53.32
2023-05-19T11:59:45.494Z,53.22
2023-05-19T11:59:55.429Z,53.22
2023-05-19T12:00:05.472Z,53.22
2023-05-19T12:00:25.434Z,53.12
2023-05-19T12:00:35.454Z,53.12
2023-05-19T12:00:45.422Z,53.12
2023-05-19T12:00:55.444Z,53.02
2023-05-19T12:01:05.428Z,53.02
2023-05-19T12:01:15.442Z,53.02
2023-05-19T12:01:25.447Z,52.92
2023-05-19T12:01:35.446Z,52.92
2023-05-19T12:01:45.453Z,52.92
2023-05-19T12:01:55.477Z,52.92
2023-05-19T12:02:15.460Z,52.92
2023-05-19T12:02:25.589Z,52.92
2023-05-19T12:02:35.537Z,52.82
2023-05-19T12:02:45.473Z,52.82
2023-05-19T12:02:55.462Z,52.82
2023-05-19T12:03:05.837Z,52.82
2023-05-19T12:03:15.760Z,52.72
2023-05-19T12:03:35.525Z,52.72
2023-05-19T12:03:45.511Z,52.59
2023-05-19T12:03:55.580Z,52.59
2023-05-19T12:04:05.481Z,52.59
2023-05-19T12:04:15.418Z,52.59
2023-05-19T12:04:25.417Z,52.49
2023-05-19T12:04:45.433Z,52.49
2023-05-19T12:04:55.435Z,52.39
2023-05-19T12:05:05.552Z,52.39
2023-05-19T12:05:15.610Z,52.39
2023-05-19T12:05:25.461Z,52.39
2023-05-19T12:05:39.176Z,52.29
2023-05-19T12:05:47.396Z,52.29
2023-05-19T12:05:56.626Z,52.29
2023-05-19T12:06:06.459Z,52.29
2023-05-19T12:06:16.484Z,52.29
2023-05-19T12:06:26.453Z,52.29
2023-05-19T12:06:36.532Z,52.29
2023-05-19T12:06:56.430Z,52.29
2023-05-19T12:07:06.421Z,52.29
2023-05-19T12:07:16.427Z,52.29
2023-05-19T12:07:26.442Z,52.29
2023-05-19T12:07:36.417Z,52.29
2023-05-19T12:07:46.436Z,52.29
2023-05-19T12:08:06.489Z,52.19
2023-05-19T12:08:16.432Z,52.19
2023-05-19T12:08:26.422Z,52.19
2023-05-19T12:08:36.424Z,52.29
2023-05-19T12:08:46.439Z,52.19
2023-05-19T12:08:56.426Z,52.19
2023-05-19T12:09:16.415Z,52.19
2023-05-19T12:09:26.425Z,52.19
2023-05-19T12:09:36.420Z,52.19
2023-05-19T12:09:46.407Z,52.19
2023-05-19T12:09:56.423Z,52.19
2023-05-19T12:10:06.425Z,52.09
2023-05-19T12:10:26.427Z,52.09
2023-05-19T12:10:36.428Z,52.09
2023-05-19T12:10:46.403Z,52.09
2023-05-19T12:10:56.438Z,52.09
2023-05-19T12:11:06.397Z,51.99
2023-05-19T12:11:18.024Z,51.99
2023-05-19T12:11:36.403Z,51.99
2023-05-19T12:11:46.397Z,51.89
2023-05-19T12:11:56.414Z,51.89
2023-05-19T12:12:06.396Z,51.89
2023-05-19T12:12:16.412Z,51.89
2023-05-19T12:12:26.416Z,51.79
2023-05-19T12:12:36.422Z,51.79
2023-05-19T12:12:46.410Z,51.79
2023-05-19T12:13:06.406Z,51.79
2023-05-19T12:13:16.403Z,51.79
2023-05-19T12:13:26.398Z,51.79
2023-05-19T12:13:36.398Z,51.79
2023-05-19T12:13:46.389Z,51.68
2023-05-19T12:13:56.394Z,51.68
2023-05-19T12:14:06.409Z,51.68
2023-05-19T12:14:26.376Z,51.68
2023-05-19T12:14:36.387Z,51.59
2023-05-19T12:14:46.388Z,51.59
2023-05-19T12:14:56.392Z,51.59
2023-05-19T12:15:06.377Z,51.59
2023-05-19T12:15:16.386Z,51.59
2023-05-19T12:15:26.380Z,51.59
2023-05-19T12:15:36.395Z,51.49
2023-05-19T12:15:56.381Z,51.49
2023-05-19T12:16:06.446Z,51.49
2023-05-19T12:16:16.429Z,51.49
2023-05-19T12:16:26.390Z,51.49
2023-05-19T12:16:36.417Z,51.49
2023-05-19T12:16:46.517Z,51.39
2023-05-19T12:16:56.388Z,51.39
2023-05-19T12:17:06.394Z,51.39
2023-05-19T12:17:16.398Z,51.39
2023-05-19T12:17:26.430Z,51.29
2023-05-19T12:17:46.395Z,51.26
2023-05-19T12:17:56.384Z,51.26
2023-05-19T12:18:06.406Z,51.26
2023-05-19T12:18:16.389Z,51.26
2023-05-19T12:18:26.357Z,51.16
2023-05-19T12:18:36.365Z,51.16
2023-05-19T12:18:56.395Z,51.16
2023-05-19T12:19:06.498Z,51.16
2023-05-19T12:19:16.426Z,51.16
2023-05-19T12:19:26.573Z,51.16
2023-05-19T12:19:36.370Z,51.06
2023-05-19T12:19:46.377Z,51.16
2023-05-19T12:19:56.374Z,51.16
2023-05-19T12:20:16.377Z,51.06
2023-05-19T12:20:26.412Z,51.16
2023-05-19T12:20:36.614Z,51.06
2023-05-19T12:20:46.365Z,51.06
2023-05-19T12:20:56.363Z,51.06
2023-05-19T12:21:06.376Z,51.06
2023-05-19T12:21:34.312Z,51.06
2023-05-19T12:21:39.516Z,50.96
2023-05-19T12:21:47.378Z,51.06
2023-05-19T12:21:57.355Z,51.06
2023-05-19T12:22:07.385Z,50.96
2023-05-19T12:22:17.395Z,50.96
2023-05-19T12:22:27.361Z,50.96
2023-05-19T12:22:47.365Z,50.96
2023-05-19T12:22:57.379Z,50.96
2023-05-19T12:23:07.372Z,50.96
2023-05-19T12:23:17.372Z,50.86
2023-05-19T12:23:27.382Z,50.86
2023-05-19T12:23:37.360Z,50.86
2023-05-19T12:23:57.358Z,50.86
2023-05-19T12:24:07.363Z,50.86
2023-05-19T12:24:17.354Z,50.76
2023-05-19T12:24:27.364Z,50.76
2023-05-19T12:24:37.363Z,50.76
2023-05-19T12:24:47.451Z,50.76
2023-05-19T12:25:07.355Z,50.76
2023-05-19T12:25:17.375Z,50.76
2023-05-19T12:25:27.361Z,50.76
2023-05-19T12:25:37.480Z,50.76
2023-05-19T12:25:47.362Z,50.76
2023-05-19T12:25:57.347Z,50.76
2023-05-19T12:26:07.357Z,50.76
2023-05-19T12:26:17.370Z,50.76
2023-05-19T12:26:37.339Z,50.76
2023-05-19T12:26:47.361Z,50.76
2023-05-19T12:26:57.347Z,50.76
2023-05-19T12:27:07.384Z,50.86
2023-05-19T12:27:17.356Z,50.86
2023-05-19T12:27:27.350Z,50.86
2023-05-19T12:27:37.345Z,50.86
2023-05-19T12:27:58.242Z,50.86
2023-05-19T12:28:07.381Z,50.96
2023-05-19T12:28:17.358Z,50.96
2023-05-19T12:28:27.335Z,50.96
2023-05-19T12:28:37.332Z,50.96
2023-05-19T12:28:47.328Z,50.96
2023-05-19T12:29:07.339Z,50.96
2023-05-19T12:29:17.332Z,50.96
2023-05-19T12:29:27.327Z,51.06
2023-05-19T12:29:37.331Z,51.06
2023-05-19T12:29:47.344Z,51.06
2023-05-19T12:29:57.354Z,51.06
2023-05-19T12:30:07.339Z,51.06
2023-05-19T12:30:17.357Z,51.06
2023-05-19T12:30:27.341Z,51.06
2023-05-19T12:30:37.694Z,51.16
2023-05-19T12:30:47.342Z,51.16
2023-05-19T12:31:07.352Z,51.16
2023-05-19T12:31:17.350Z,51.16
2023-05-19T12:31:27.374Z,51.16
2023-05-19T12:31:37.376Z,51.26
2023-05-19T12:31:47.463Z,51.16
2023-05-19T12:31:57.364Z,51.24
2023-05-19T12:32:17.308Z,51.26
2023-05-19T12:32:27.342Z,51.24
2023-05-19T12:32:37.355Z,51.26
2023-05-19T12:32:47.340Z,51.24
2023-05-19T12:32:57.317Z,51.16
2023-05-19T12:33:07.354Z,51.14
2023-05-19T12:33:17.322Z,51.14
2023-05-19T12:33:37.320Z,51.04
2023-05-19T12:33:47.330Z,51.04
2023-05-19T12:33:57.324Z,51.04
2023-05-19T12:34:07.325Z,51.04
2023-05-19T12:34:17.331Z,51.04
2023-05-19T12:34:27.322Z,51.04
2023-05-19T12:34:47.324Z,50.93
2023-05-19T12:34:57.298Z,50.93
2023-05-19T12:35:07.312Z,50.93
2023-05-19T12:35:17.312Z,50.93
2023-05-19T12:35:27.312Z,50.93
2023-05-19T12:35:37.307Z,50.84
2023-05-19T12:35:57.313Z,50.84
2023-05-19T12:36:07.322Z,50.84
2023-05-19T12:36:17.311Z,50.93
2023-05-19T12:36:27.320Z,50.93
2023-05-19T12:36:37.332Z,50.93
2023-05-19T12:36:47.297Z,50.93
2023-05-19T12:37:07.360Z,50.93
2023-05-19T12:37:17.299Z,50.93
2023-05-19T12:37:27.292Z,50.93
2023-05-19T12:37:37.306Z,50.84
2023-05-19T12:37:47.305Z,50.84
2023-05-19T12:37:57.305Z,50.93
2023-05-19T12:38:17.306Z,50.93
2023-05-19T12:38:27.298Z,50.93
2023-05-19T12:38:37.302Z,50.93
2023-05-19T12:38:47.307Z,50.93
2023-05-19T12:38:57.289Z,50.93
2023-05-19T12:39:07.302Z,50.93
2023-05-19T12:39:27.289Z,50.93
2023-05-19T12:39:37.280Z,50.93
2023-05-19T12:39:47.297Z,50.93
2023-05-19T12:39:57.277Z,50.93
2023-05-19T12:40:07.302Z,50.93
2023-05-19T12:40:17.338Z,50.93
2023-05-19T12:40:27.295Z,50.93
2023-05-19T12:40:37.882Z,50.93
2023-05-19T12:40:47.300Z,50.93
2023-05-19T12:40:57.293Z,50.93
2023-05-19T12:41:17.297Z,50.93
2023-05-19T12:41:27.302Z,50.93
2023-05-19T12:41:37.276Z,50.93
2023-05-19T12:41:47.289Z,50.93
2023-05-19T12:41:57.309Z,50.93
2023-05-19T12:42:07.300Z,50.93
2023-05-19T12:42:27.291Z,50.93
2023-05-19T12:42:37.268Z,50.93
2023-05-19T12:42:47.279Z,50.93
2023-05-19T12:42:57.295Z,50.93
2023-05-19T12:43:07.292Z,50.93
2023-05-19T12:43:17.285Z,50.93
2023-05-19T12:43:27.302Z,50.93
2023-05-19T12:43:37.274Z,50.93
2023-05-19T12:43:47.294Z,50.93
2023-05-19T12:44:07.290Z,50.93
2023-05-19T12:44:17.276Z,50.93
2023-05-19T12:44:27.281Z,50.93
2023-05-19T12:44:37.277Z,50.93
2023-05-19T12:44:47.290Z,50.93
2023-05-19T12:44:57.287Z,50.93
2023-05-19T12:45:17.280Z,50.93
2023-05-19T12:45:27.258Z,50.93
2023-05-19T12:45:37.540Z,50.93
2023-05-19T12:45:47.289Z,50.93
2023-05-19T12:45:57.311Z,50.93
2023-05-19T12:46:07.272Z,50.93
2023-05-19T12:46:27.290Z,50.93
2023-05-19T12:46:37.271Z,50.93
2023-05-19T12:46:47.273Z,50.93
2023-05-19T12:46:57.268Z,50.93
2023-05-19T12:47:07.277Z,50.93
2023-05-19T12:47:17.244Z,50.93
2023-05-19T12:47:27.314Z,50.93
2023-05-19T12:47:47.308Z,50.93
2023-05-19T12:47:57.324Z,50.93
2023-05-19T12:48:07.441Z,50.93
2023-05-19T12:48:17.353Z,50.93
2023-05-19T12:48:27.266Z,50.93
2023-05-19T12:48:37.265Z,50.93
2023-05-19T12:48:47.261Z,50.93
2023-05-19T12:48:57.256Z,50.93
2023-05-19T12:49:07.280Z,50.93
2023-05-19T12:49:17.258Z,51.04
2023-05-19T12:49:37.265Z,51.04
2023-05-19T12:49:47.267Z,51.04
2023-05-19T12:49:57.270Z,51.04
2023-05-19T12:50:07.252Z,51.14
2023-05-19T12:50:17.259Z,51.14
2023-05-19T12:50:27.257Z,51.14
2023-05-19T12:50:47.257Z,51.24
2023-05-19T12:50:57.252Z,51.24
2023-05-19T12:51:07.240Z,51.24
2023-05-19T12:51:17.243Z,51.31
2023-05-19T12:51:27.243Z,51.34
2023-05-19T12:51:37.245Z,51.31
2023-05-19T12:51:57.244Z,51.31
2023-05-19T12:52:11.841Z,51.31
2023-05-19T12:52:18.258Z,51.31
2023-05-19T12:52:28.232Z,51.31
2023-05-19T12:52:38.235Z,51.31
2023-05-19T12:52:48.239Z,51.42
2023-05-19T12:52:58.246Z,51.31
2023-05-19T12:53:08.242Z,51.31
2023-05-19T12:53:28.247Z,51.31
2023-05-19T12:53:38.232Z,51.21
2023-05-19T12:53:48.236Z,51.21
2023-05-19T12:53:58.240Z,51.21
2023-05-19T12:54:08.299Z,51.21
2023-05-19T12:54:18.319Z,51.31
2023-05-19T12:54:28.278Z,51.21
2023-05-19T12:54:38.273Z,51.21
2023-05-19T12:54:58.276Z,51.21
2023-05-19T12:55:08.324Z,51.21
2023-05-19T12:55:18.250Z,51.21
2023-05-19T12:55:28.229Z,51.21
2023-05-19T12:55:38.222Z,51.11
2023-05-19T12:55:48.234Z,51.11
2023-05-19T12:56:08.236Z,51.11
2023-05-19T12:56:18.223Z,51.11
2023-05-19T12:56:28.224Z,51.11
2023-05-19T12:56:38.222Z,51.21
2023-05-19T12:56:48.231Z,51.21
2023-05-19T12:56:58.204Z,51.21
2023-05-19T12:57:18.228Z,51.21
2023-05-19T12:57:28.215Z,51.21
2023-05-19T12:57:38.219Z,51.21
2023-05-19T12:57:49.328Z,51.21
2023-05-19T12:57:58.377Z,51.21
2023-05-19T12:58:08.245Z,51.21
2023-05-19T12:58:28.222Z,51.21
2023-05-19T12:58:38.237Z,51.21
2023-05-19T12:58:48.224Z,51.21
2023-05-19T12:58:58.211Z,51.21
2023-05-19T12:59:08.234Z,51.21
2023-05-19T12:59:26.908Z,51.21
2023-05-19T12:59:42.140Z,51.21
2023-05-19T12:59:48.238Z,51.31
2023-05-19T12:59:58.275Z,51.31
2023-05-19T13:00:08.239Z,51.31
2023-05-19T13:00:18.247Z,51.31
2023-05-19T13:00:28.716Z,51.31
2023-05-19T13:00:48.320Z,51.21
2023-05-19T13:00:58.285Z,51.31
2023-05-19T13:01:08.320Z,51.31
2023-05-19T13:01:18.465Z,51.31
2023-05-19T13:01:28.316Z,51.21
2023-05-19T13:01:38.241Z,51.31
2023-05-19T13:01:58.281Z,51.31
2023-05-19T13:02:08.273Z,51.31
2023-05-19T13:02:18.303Z,51.31
2023-05-19T13:02:28.245Z,51.31
2023-05-19T13:02:38.356Z,51.31
2023-05-19T13:02:48.402Z,51.31
2023-05-19T13:03:08.339Z,51.21
2023-05-19T13:03:18.293Z,51.31
2023-05-19T13:03:28.351Z,51.31
2023-05-19T13:03:38.252Z,51.21
2023-05-19T13:03:48.542Z,51.31
2023-05-19T13:03:58.369Z,51.21
2023-05-19T13:04:18.232Z,51.21
2023-05-19T13:04:28.215Z,51.11
2023-05-19T13:04:38.213Z,51.11
2023-05-19T13:04:48.203Z,50.91
2023-05-19T13:04:58.222Z,50.91
2023-05-19T13:05:08.205Z,51.01
2023-05-19T13:05:18.205Z,50.91
2023-05-19T13:05:28.221Z,50.81
2023-05-19T13:05:48.217Z,50.81
2023-05-19T13:05:58.208Z,50.71
2023-05-19T13:06:08.204Z,50.71
2023-05-19T13:06:18.212Z,50.71
2023-05-19T13:06:28.207Z,50.71
2023-05-19T13:06:38.208Z,50.71
2023-05-19T13:06:48.218Z,50.71
2023-05-19T13:07:08.207Z,50.71
2023-05-19T13:07:19.161Z,50.71
2023-05-19T13:07:28.786Z,50.71
2023-05-19T13:07:38.546Z,50.71
2023-05-19T13:07:48.263Z,50.71
2023-05-19T13:07:58.258Z,50.71
2023-05-19T13:08:08.222Z,50.71
2023-05-19T13:08:28.220Z,50.71
2023-05-19T13:08:38.204Z,50.71
2023-05-19T13:08:48.208Z,50.71
2023-05-19T13:08:58.197Z,50.71
2023-05-19T13:09:08.193Z,50.71
2023-05-19T13:09:18.186Z,50.71
2023-05-19T13:09:38.184Z,50.71
2023-05-19T13:09:48.189Z,50.61
2023-05-19T13:09:58.170Z,50.61
2023-05-19T13:10:08.269Z,50.61
2023-05-19T13:10:18.194Z,50.51
2023-05-19T13:10:28.188Z,50.51
2023-05-19T13:10:48.164Z,50.51
2023-05-19T13:10:58.170Z,50.51
2023-05-19T13:11:08.182Z,50.51
2023-05-19T13:11:18.165Z,50.51
2023-05-19T13:11:28.176Z,50.51
2023-05-19T13:11:38.177Z,50.51
2023-05-19T13:11:48.190Z,50.51
2023-05-19T13:11:58.178Z,50.41
2023-05-19T13:12:08.178Z,50.51
2023-05-19T13:12:18.169Z,50.41
2023-05-19T13:12:28.191Z,50.51
2023-05-19T13:12:38.186Z,50.51
2023-05-19T13:12:58.170Z,50.51
2023-05-19T13:13:08.278Z,50.41
2023-05-19T13:13:18.175Z,50.51
2023-05-19T13:13:28.158Z,50.51
2023-05-19T13:13:38.172Z,50.51
2023-05-19T13:13:48.156Z,50.51
2023-05-19T13:14:08.186Z,50.51
2023-05-19T13:14:18.167Z,50.51
2023-05-19T13:14:28.169Z,50.51
2023-05-19T13:14:38.167Z,50.61
2023-05-19T13:14:48.169Z,50.61
2023-05-19T13:14:58.150Z,50.61
2023-05-19T13:15:18.171Z,50.61
2023-05-19T13:15:28.161Z,50.71
2023-05-19T13:15:38.169Z,50.71
2023-05-19T13:15:48.162Z,50.71
2023-05-19T13:15:58.156Z,50.71
2023-05-19T13:16:08.198Z,50.71
2023-05-19T13:16:28.208Z,50.81
2023-05-19T13:16:38.164Z,50.81
2023-05-19T13:16:48.217Z,50.81
2023-05-19T13:16:58.168Z,50.81
2023-05-19T13:17:08.218Z,50.81
2023-05-19T13:17:18.149Z,50.81
2023-05-19T13:17:28.210Z,50.81
2023-05-19T13:17:38.169Z,50.81
2023-05-19T13:17:58.168Z,50.81
2023-05-19T13:18:08.180Z,50.81
2023-05-19T13:18:18.162Z,50.81
2023-05-19T13:18:28.156Z,50.81
2023-05-19T13:18:38.177Z,50.81
2023-05-19T13:18:48.215Z,50.71
2023-05-19T13:18:58.195Z,50.71
2023-05-19T13:19:25.419Z,50.71
2023-05-19T13:19:31.132Z,50.61
2023-05-19T13:19:39.198Z,50.61
2023-05-19T13:19:49.198Z,50.61
2023-05-19T13:19:59.171Z,50.61
2023-05-19T13:20:09.174Z,50.51
2023-05-19T13:20:19.143Z,50.51
2023-05-19T13:20:39.156Z,50.41
2023-05-19T13:20:49.162Z,50.41
2023-05-19T13:20:59.154Z,50.41
2023-05-19T13:21:09.174Z,50.51
2023-05-19T13:21:19.135Z,50.41
2023-05-19T13:21:29.135Z,50.41
2023-05-19T13:21:49.136Z,50.41
2023-05-19T13:21:59.142Z,50.41
2023-05-19T13:22:09.138Z,50.41
2023-05-19T13:22:19.161Z,50.41
2023-05-19T13:22:29.139Z,50.41
2023-05-19T13:22:39.115Z,50.41
2023-05-19T13:22:49.137Z,50.41
2023-05-19T13:23:09.124Z,50.31
2023-05-19T13:23:19.128Z,50.31
2023-05-19T13:23:29.135Z,50.31
2023-05-19T13:23:39.126Z,50.31
2023-05-19T13:23:49.111Z,50.31
2023-05-19T13:23:59.148Z,50.31
2023-05-19T13:24:09.137Z,50.31
2023-05-19T13:24:29.134Z,50.31
2023-05-19T13:24:39.109Z,50.31
2023-05-19T13:24:49.119Z,50.31
2023-05-19T13:24:59.159Z,50.31
2023-05-19T13:25:09.132Z,50.31
2023-05-19T13:25:19.127Z,50.31
2023-05-19T13:25:39.127Z,50.31
2023-05-19T13:25:49.128Z,50.31
2023-05-19T13:25:59.107Z,50.41
2023-05-19T13:26:09.146Z,50.41
2023-05-19T13:26:19.101Z,50.41
2023-05-19T13:26:29.107Z,50.41
2023-05-19T13:26:39.132Z,50.41
2023-05-19T13:26:49.168Z,50.41
2023-05-19T13:26:59.115Z,50.41
2023-05-19T13:27:19.115Z,50.41
2023-05-19T13:27:29.128Z,50.41
2023-05-19T13:27:39.124Z,50.41
2023-05-19T13:27:49.114Z,50.41
2023-05-19T13:27:59.101Z,50.41
2023-05-19T13:28:09.113Z,50.41
2023-05-19T13:28:19.117Z,50.41
2023-05-19T13:28:39.104Z,50.51
2023-05-19T13:28:49.106Z,50.51
2023-05-19T13:28:59.121Z,50.41
2023-05-19T13:29:09.116Z,50.41
2023-05-19T13:29:19.106Z,50.51
2023-05-19T13:29:29.098Z,50.41
2023-05-19T13:29:49.090Z,50.41
2023-05-19T13:29:59.092Z,50.41
2023-05-19T13:30:09.172Z,50.31
2023-05-19T13:30:19.085Z,50.31
2023-05-19T13:30:29.103Z,50.31
2023-05-19T13:30:39.283Z,50.41
2023-05-19T13:30:49.121Z,50.31
2023-05-19T13:31:09.148Z,50.31
2023-05-19T13:31:19.145Z,50.31
2023-05-19T13:31:29.145Z,50.31
2023-05-19T13:31:39.132Z,50.31
2023-05-19T13:31:49.099Z,50.31
2023-05-19T13:32:01.180Z,50.31
2023-05-19T13:32:19.088Z,50.31
2023-05-19T13:32:29.091Z,50.31
2023-05-19T13:32:39.135Z,50.31
2023-05-19T13:32:49.143Z,50.31
2023-05-19T13:32:59.230Z,50.31
2023-05-19T13:33:09.134Z,50.31
2023-05-19T13:33:29.074Z,50.31
2023-05-19T13:33:39.095Z,50.31
2023-05-19T13:33:49.106Z,50.41
2023-05-19T13:33:59.078Z,50.41
2023-05-19T13:34:09.088Z,50.41
2023-05-19T13:34:19.125Z,50.41
2023-05-19T13:34:29.109Z,50.41
2023-05-19T13:34:49.071Z,50.41
2023-05-19T13:34:59.091Z,50.41
2023-05-19T13:35:09.079Z,50.51
2023-05-19T13:35:19.082Z,50.51
2023-05-19T13:35:29.107Z,50.51
2023-05-19T13:35:39.275Z,50.51
2023-05-19T13:35:49.081Z,50.51
2023-05-19T13:35:59.087Z,50.51
2023-05-19T13:36:19.086Z,50.51
2023-05-19T13:36:29.076Z,50.51
2023-05-19T13:36:39.153Z,50.51
2023-05-19T13:36:49.132Z,50.51
2023-05-19T13:36:59.129Z,50.51
2023-05-19T13:37:09.931Z,50.51
2023-05-19T13:37:29.267Z,50.61
2023-05-19T13:37:39.139Z,50.61
2023-05-19T13:37:49.102Z,50.61
2023-05-19T13:37:59.091Z,50.61
2023-05-19T13:38:09.098Z,50.61
2023-05-19T13:38:19.085Z,50.61
2023-05-19T13:38:29.089Z,50.61
2023-05-19T13:38:49.072Z,50.61
2023-05-19T13:38:59.063Z,50.61
2023-05-19T13:39:09.073Z,50.61
2023-05-19T13:39:19.047Z,50.61
2023-05-19T13:39:29.070Z,50.61
2023-05-19T13:39:39.046Z,50.61
2023-05-19T13:39:49.073Z,50.61
2023-05-19T13:39:59.606Z,50.61
2023-05-19T13:40:19.048Z,50.51
2023-05-19T13:40:29.046Z,50.51
2023-05-19T13:40:39.065Z,50.41
2023-05-19T13:40:49.053Z,50.41
2023-05-19T13:40:59.074Z,50.41
2023-05-19T13:41:10.655Z,50.31
2023-05-19T13:41:29.052Z,50.31
2023-05-19T13:41:39.066Z,50.31
2023-05-19T13:41:49.064Z,50.21
2023-05-19T13:41:59.051Z,50.21
2023-05-19T13:42:09.078Z,50.21
2023-05-19T13:42:19.041Z,50.21
2023-05-19T13:42:39.123Z,50.21
2023-05-19T13:42:49.053Z,50.21
2023-05-19T13:42:59.047Z,50.21
2023-05-19T13:43:09.209Z,50.21
2023-05-19T13:43:19.037Z,50.21
2023-05-19T13:43:29.026Z,50.21
2023-05-19T13:43:49.049Z,50.21
2023-05-19T13:43:59.030Z,50.21
2023-05-19T13:44:09.114Z,50.21
2023-05-19T13:44:19.037Z,50.21
2023-05-19T13:44:29.042Z,50.21
2023-05-19T13:44:39.043Z,50.21
2023-05-19T13:44:59.051Z,50.21
2023-05-19T13:45:09.040Z,50.31
2023-05-19T13:45:19.047Z,50.31
2023-05-19T13:45:29.051Z,50.31
2023-05-19T13:45:39.026Z,50.31
2023-05-19T13:45:49.056Z,50.31
2023-05-19T13:45:59.095Z,50.41
2023-05-19T13:46:11.287Z,50.41
2023-05-19T13:46:22.155Z,50.41
2023-05-19T13:46:43.982Z,50.41
2023-05-19T13:46:52.224Z,50.41
2023-05-19T13:46:58.519Z,50.41
2023-05-19T13:47:08.522Z,50.41
2023-05-19T13:47:18.627Z,50.51
2023-05-19T13:47:28.576Z,50.51
2023-05-19T13:47:38.514Z,50.51
2023-05-19T13:47:58.545Z,50.51
2023-05-19T13:48:08.557Z,50.51
2023-05-19T13:48:18.548Z,50.51
2023-05-19T13:48:28.485Z,50.51
2023-05-19T13:48:38.491Z,50.51
2023-05-19T13:48:48.488Z,50.51
2023-05-19T13:49:08.481Z,50.51
2023-05-19T13:49:18.495Z,50.51
2023-05-19T13:49:28.480Z,50.51
2023-05-19T13:49:38.500Z,50.51
2023-05-19T13:49:48.477Z,50.51
2023-05-19T13:49:58.516Z,50.51
2023-05-19T13:50:08.500Z,50.51
2023-05-19T13:50:18.529Z,50.51
2023-05-19T13:50:28.487Z,50.51
2023-05-19T13:50:48.492Z,50.51
2023-05-19T13:50:58.489Z,50.51
2023-05-19T13:51:08.494Z,50.51
2023-05-19T13:51:18.486Z,50.51
2023-05-19T13:51:28.585Z,50.61
2023-05-19T13:51:38.477Z,50.61
2023-05-19T13:51:58.476Z,50.61
2023-05-19T13:52:08.488Z,50.51
2023-05-19T13:52:18.474Z,50.51
2023-05-19T13:52:30.408Z,50.51
2023-05-19T13:52:38.492Z,50.51
2023-05-19T13:52:48.483Z,50.51
2023-05-19T13:53:08.473Z,50.51
2023-05-19T13:53:18.463Z,50.51
2023-05-19T13:53:28.476Z,50.51
2023-05-19T13:53:38.458Z,50.51
2023-05-19T13:53:48.514Z,50.51
2023-05-19T13:53:58.460Z,50.51
2023-05-19T13:54:08.471Z,50.51
2023-05-19T13:54:18.460Z,50.51
2023-05-19T13:54:38.480Z,50.51
2023-05-19T13:54:48.478Z,50.41
2023-05-19T13:54:58.478Z,50.41
2023-05-19T13:55:21.277Z,50.41
2023-05-19T13:55:32.305Z,50.41
2023-05-19T13:55:42.260Z,50.51
2023-05-19T13:55:52.268Z,50.51
2023-05-19T13:56:02.264Z,50.51
2023-05-19T13:56:12.291Z,50.51
2023-05-19T13:56:22.267Z,50.51
2023-05-19T13:56:42.259Z,50.51
2023-05-19T13:56:52.277Z,50.51
2023-05-19T13:57:02.274Z,50.51
2023-05-19T13:57:12.283Z,50.41
2023-05-19T13:57:22.269Z,50.41
2023-05-19T13:57:32.299Z,50.41
2023-05-19T13:57:44.006Z,50.41
2023-05-19T13:57:52.282Z,50.41
2023-05-19T13:58:12.269Z,50.31
2023-05-19T13:58:22.254Z,50.31
2023-05-19T13:58:32.256Z,50.31
2023-05-19T13:58:42.250Z,50.31
2023-05-19T13:58:52.265Z,50.31
2023-05-19T13:59:02.250Z,50.31
2023-05-19T13:59:22.265Z,50.21
2023-05-19T13:59:32.284Z,50.21
2023-05-19T13:59:57.226Z,50.21
2023-05-19T14:00:06.528Z,50.21
2023-05-19T14:00:12.671Z,50.21
2023-05-19T14:00:22.668Z,50.11
2023-05-19T14:00:32.996Z,50.11
2023-05-19T14:00:42.641Z,50.11
2023-05-19T14:00:52.634Z,50.11
2023-05-19T14:01:12.655Z,50.11
2023-05-19T14:01:22.675Z,50.11
2023-05-19T14:01:32.720Z,50.11
2023-05-19T14:01:42.674Z,50.11
2023-05-19T14:01:52.660Z,50.11
2023-05-19T14:02:02.822Z,50.11
2023-05-19T14:02:22.678Z,50.11
2023-05-19T14:02:32.699Z,50.11
2023-05-19T14:02:42.717Z,50.21
2023-05-19T14:02:52.733Z,50.21
2023-05-19T14:03:02.697Z,50.21
2023-05-19T14:03:12.653Z,50.21
2023-05-19T14:03:32.687Z,50.31
2023-05-19T14:03:42.710Z,50.31
2023-05-19T14:03:52.889Z,50.31
2023-05-19T14:04:02.789Z,50.31
2023-05-19T14:04:12.932Z,50.31
2023-05-19T14:04:22.785Z,50.41
2023-05-19T14:04:32.636Z,50.41
2023-05-19T14:04:52.625Z,50.41
2023-05-19T14:05:02.622Z,50.41
2023-05-19T14:05:12.620Z,50.41
2023-05-19T14:05:22.614Z,50.41
2023-05-19T14:05:32.615Z,50.41
2023-05-19T14:05:42.603Z,50.41
2023-05-19T14:06:02.603Z,50.41
2023-05-19T14:06:12.674Z,50.41
2023-05-19T14:06:22.616Z,50.41
2023-05-19T14:06:32.617Z,50.31
2023-05-19T14:06:42.621Z,50.31
2023-05-19T14:06:52.627Z,50.31
2023-05-19T14:07:02.621Z,50.31
2023-05-19T14:07:22.604Z,50.31
2023-05-19T14:07:32.807Z,50.21
2023-05-19T14:07:42.784Z,50.21
2023-05-19T14:08:07.708Z,50.21
2023-05-19T14:08:18.711Z,50.21
2023-05-19T14:08:28.716Z,50.21
2023-05-19T14:09:57.686Z,50.11
2023-05-19T14:10:08.691Z,50.21
2023-05-19T14:10:18.712Z,50.21
2023-05-19T14:10:28.698Z,50.21
2023-05-19T14:10:38.674Z,50.21
2023-05-19T14:10:48.673Z,50.21
2023-05-19T14:10:58.682Z,50.21
2023-05-19T14:11:18.689Z,50.21
2023-05-19T14:11:28.677Z,50.21
2023-05-19T14:11:38.674Z,50.21
2023-05-19T14:11:48.698Z,50.21
2023-05-19T14:11:58.688Z,50.21
2023-05-19T14:12:08.679Z,50.21
2023-05-19T14:12:38.173Z,50.21
2023-05-19T14:13:31.345Z,50.11
2023-05-19T14:13:41.094Z,50.11
2023-05-19T14:13:50.574Z,50.11
2023-05-19T14:13:58.894Z,50.11
2023-05-19T14:14:10.553Z,50.11
2023-05-19T14:14:18.898Z,50.11
2023-05-19T14:14:28.896Z,50.11
2023-05-19T14:14:38.899Z,50.11
2023-05-19T14:14:48.896Z,50.11
2023-05-19T14:15:09.229Z,50.11
2023-05-19T14:15:18.899Z,50.11
2023-05-19T14:15:28.869Z,50.11
2023-05-19T14:15:39.005Z,50.11
2023-05-19T14:15:48.899Z,50.11
2023-05-19T14:15:58.902Z,50.11
2023-05-19T14:16:18.941Z,50.11
2023-05-19T14:16:29.001Z,50.11
2023-05-19T14:16:38.940Z,50.11
2023-05-19T14:16:48.878Z,50.11
2023-05-19T14:16:58.875Z,50.11
2023-05-19T14:17:08.878Z,50.11
2023-05-19T14:17:28.922Z,50.11
2023-05-19T14:17:38.954Z,50.11
2023-05-19T14:17:49.075Z,50.11
2023-05-19T14:17:58.976Z,50.11
2023-05-19T14:18:08.963Z,50.11
2023-05-19T14:18:18.893Z,50.21
2023-05-19T14:18:28.878Z,50.21
2023-05-19T14:18:48.903Z,50.21
2023-05-19T14:18:58.891Z,50.21
2023-05-19T14:19:08.959Z,50.21
2023-05-19T14:19:18.917Z,50.21
2023-05-19T14:19:28.995Z,50.21
2023-05-19T14:19:38.876Z,50.21
2023-05-19T14:19:58.966Z,50.21
2023-05-19T14:20:08.864Z,50.21